Time;durP1;ratioP1;P1;durP2;ratioP2;P2;SDS_P1;SDS_P2;PMS_P1;PMS_P2;Temp;Humidity;BMP_temperature;BMP_pressure;BME280_temperature;BME280_humidity;BME280_pressure;Samples;Min_cycle;Max_cycle;Signal;HPM_P1;HPM_P2
2022/09/01 00:02:07;;;;;;;10.87;4.87;;;;;;;19.86;69.42;100417.75;124891;1098;102968;-79
2022/09/01 00:04:40;;;;;;;10.90;5.33;;;;;;;19.88;70.14;100418.61;124791;1099;104251;-78
2022/09/01 00:07:12;;;;;;;9.00;4.62;;;;;;;19.86;69.59;100417.75;124734;1099;102742;-79
2022/09/01 00:09:44;;;;;;;11.23;5.17;;;;;;;19.84;69.21;100416.87;124815;1099;111981;-78
2022/09/01 00:12:16;;;;;;;11.70;4.67;;;;;;;19.84;69.45;100419.55;124856;1098;104163;-78
2022/09/01 00:14:50;;;;;;;;;;;;;;;19.81;69.16;100417.77;124785;1099;104278;-79
2022/09/01 00:17:23;;;;;;;11.97;4.53;;;;;;;19.80;69.05;100415.11;124832;1098;104220;-79
2022/09/01 00:19:53;;;;;;;;;;;;;;;19.77;68.51;100418.66;124961;1099;105009;-78
2022/09/01 00:22:25;;;;;;;9.50;4.60;;;;;;;19.78;69.42;100416.90;124798;1099;104307;-78
2022/09/01 00:25:00;;;;;;;9.37;4.33;;;;;;;19.78;68.79;100419.56;124842;1099;104223;-78
2022/09/01 00:27:32;;;;;;;9.53;4.60;;;;;;;19.77;69.42;100413.33;124750;1099;103289;-78
2022/09/01 00:30:05;;;;;;;9.20;4.70;;;;;;;19.76;68.71;100416.87;124728;1098;102759;-78
2022/09/01 00:32:36;;;;;;;11.47;4.37;;;;;;;19.76;69.25;100416.87;124845;1099;104645;-78
2022/09/01 00:35:09;;;;;;;9.70;4.43;;;;;;;19.74;68.37;100413.30;124778;1099;104195;-77
2022/09/01 00:37:40;;;;;;;10.63;4.47;;;;;;;19.74;68.29;100416.87;124757;1099;104229;-77
2022/09/01 00:40:14;;;;;;;10.77;4.23;;;;;;;19.73;68.79;100411.55;124765;1099;102865;-79
2022/09/01 00:42:47;;;;;;;9.37;3.93;;;;;;;19.73;68.19;100412.43;124872;1099;104194;-78
2022/09/01 00:45:20;;;;;;;11.33;4.87;;;;;;;19.73;68.46;100417.75;124763;1099;104159;-78
2022/09/01 00:47:52;;;;;;;10.43;4.50;;;;;;;19.72;67.75;100413.31;124775;1099;102288;-78
2022/09/01 00:50:24;;;;;;;11.00;4.23;;;;;;;19.72;67.65;100409.77;124739;1099;103184;-78
2022/09/01 00:52:58;;;;;;;9.57;4.50;;;;;;;19.71;68.47;100408.90;124775;1099;102958;-78
2022/09/01 00:55:33;;;;;;;9.77;4.13;;;;;;;19.69;68.79;100409.78;124778;1099;104287;-78
2022/09/01 00:58:07;;;;;;;10.80;4.47;;;;;;;19.64;68.29;100396.48;124817;1097;104194;-78
2022/09/01 01:00:40;;;;;;;10.70;4.50;;;;;;;19.61;68.48;100401.82;124775;1099;104190;-77
2022/09/01 01:03:11;;;;;;;;;;;;;;;19.55;68.47;100392.06;124816;1099;102759;-77
2022/09/01 01:05:47;;;;;;;7.37;4.20;;;;;;;19.52;68.94;100392.07;124762;1099;102811;-78
2022/09/01 01:08:20;;;;;;;10.63;4.60;;;;;;;19.49;68.78;100396.53;124758;1099;104143;-78
2022/09/01 01:10:51;;;;;;;10.73;4.23;;;;;;;19.48;68.74;100392.12;124788;1099;104156;-77
2022/09/01 01:13:24;;;;;;;10.17;4.33;;;;;;;19.48;68.69;100400.98;124783;1099;104259;-78
2022/09/01 01:15:56;;;;;;;13.05;4.70;;;;;;;19.48;68.42;100400.10;124804;1099;102833;-78
2022/09/01 01:18:29;;;;;;;7.43;4.20;;;;;;;19.48;68.32;100410.75;124735;1099;104162;-78
2022/09/01 01:24:02;;;;;;;13.10;4.20;;;;;;;19.47;68.94;100408.96;124793;1099;104160;-78
2022/09/01 01:26:34;;;;;;;11.83;4.40;;;;;;;19.45;68.84;100411.62;124756;1099;104152;-78
2022/09/01 01:29:08;;;;;;;7.97;4.23;;;;;;;19.46;68.98;100413.41;124715;1099;102915;-78
2022/09/01 01:31:40;;;;;;;11.13;4.60;;;;;;;19.48;68.59;100410.75;124769;1099;117825;-79
2022/09/01 01:34:12;;;;;;;8.20;4.23;;;;;;;19.48;68.96;100416.94;124749;1099;104157;-79
2022/09/01 01:36:44;;;;;;;8.70;4.17;;;;;;;19.51;68.94;100416.03;124825;1099;104163;-78
2022/09/01 01:39:21;;;;;;;7.40;4.23;;;;;;;19.51;68.38;100413.37;124802;1099;102797;-80
2022/09/01 01:41:54;;;;;;;10.07;4.30;;;;;;;19.50;68.12;100412.49;124918;1099;102816;-78
2022/09/01 01:44:31;;;;;;;9.23;4.20;;;;;;;19.52;69.12;100415.15;124789;1099;102810;-79
2022/09/01 01:47:08;;;;;;;;;;;;;;;19.50;68.66;100414.28;124794;1099;104280;-78
2022/09/01 01:49:42;;;;;;;9.20;4.07;;;;;;;19.50;68.46;100412.49;124867;1099;102768;-79
2022/09/01 01:52:16;;;;;;;10.13;4.30;;;;;;;19.51;67.97;100418.69;124871;1099;104223;-77
2022/09/01 01:54:49;;;;;;;9.23;4.00;;;;;;;19.48;68.30;100419.60;124822;1099;104210;-78
2022/09/01 01:57:20;;;;;;;7.13;4.00;;;;;;;19.48;67.75;100416.06;124845;1098;101949;-78
2022/09/01 01:59:52;;;;;;;12.27;5.00;;;;;;;19.47;68.71;100412.50;124754;1099;102384;-78
2022/09/01 02:02:24;;;;;;;9.80;4.60;;;;;;;19.46;68.35;100412.50;124766;1100;104155;-79
2022/09/01 02:04:55;;;;;;;12.57;4.40;;;;;;;19.45;68.05;100416.95;124661;1099;104259;-78
2022/09/01 02:07:27;;;;;;;12.43;4.20;;;;;;;19.45;67.96;100411.62;124759;1099;104245;-78
2022/09/01 02:09:58;;;;;;;9.33;4.47;;;;;;;19.46;67.92;100412.50;124786;1099;104226;-78
2022/09/01 02:12:31;;;;;;;11.23;4.20;;;;;;;19.44;68.27;100406.30;124705;1099;108220;-78
2022/09/01 02:15:02;;;;;;;10.18;4.08;;;;;;;19.44;68.75;100414.29;124776;1099;104172;-78
2022/09/01 02:17:38;;;;;;;8.53;4.23;;;;;;;19.43;68.71;100407.19;124765;1098;104169;-78
2022/09/01 02:20:10;;;;;;;8.93;4.40;;;;;;;19.42;68.59;100402.77;124780;1099;104171;-78
2022/09/01 02:22:43;;;;;;;12.10;4.47;;;;;;;19.40;68.69;100400.12;124777;1099;118533;-78
2022/09/01 02:25:16;;;;;;;10.40;4.50;;;;;;;19.38;68.55;100401.88;124825;1099;102217;-77
2022/09/01 02:27:49;;;;;;;11.50;5.00;;;;;;;19.31;68.14;100398.34;124847;1099;104197;-78
2022/09/01 02:30:26;;;;;;;12.63;5.17;;;;;;;19.27;68.83;100396.57;124781;1099;104166;-78
2022/09/01 02:32:58;;;;;;;10.73;4.60;;;;;;;19.24;68.34;100406.34;124740;1099;104156;-78
2022/09/01 02:35:30;;;;;;;10.70;4.80;;;;;;;19.21;68.89;100407.22;124837;1099;104169;-78
2022/09/01 02:38:01;;;;;;;11.43;4.70;;;;;;;19.19;68.59;100415.20;124704;1099;104222;-78
2022/09/01 02:40:33;;;;;;;9.97;4.43;;;;;;;19.20;69.00;100410.78;124761;1099;104255;-78
2022/09/01 02:43:04;;;;;;;11.00;5.00;;;;;;;19.19;69.32;100411.66;124771;1099;102249;-78
2022/09/01 02:45:36;;;;;;;10.03;4.83;;;;;;;19.19;68.96;100411.66;124796;1099;104217;-78
2022/09/01 02:48:08;;;;;;;10.07;4.80;;;;;;;19.18;69.14;100408.12;124725;1099;104315;-78
2022/09/01 02:50:41;;;;;;;12.40;4.77;;;;;;;19.19;69.33;100404.56;124751;1098;102431;-78
2022/09/01 02:53:15;;;;;;;8.58;4.50;;;;;;;19.22;69.39;100412.53;124891;1099;103307;-79
2022/09/01 02:55:51;;;;;;;7.53;3.97;;;;;;;19.22;69.33;100407.22;124884;1100;102372;-80
2022/09/01 02:58:23;;;;;;;9.77;4.00;;;;;;;19.20;69.87;100406.34;124860;1099;104224;-80
2022/09/01 03:00:57;;;;;;;10.30;3.97;;;;;;;19.21;69.15;100401.89;124835;1099;104266;-79
2022/09/01 03:03:30;;;;;;;7.83;4.00;;;;;;;19.20;69.28;100409.00;124748;1099;104210;-79
2022/09/01 03:06:02;;;;;;;9.73;3.83;;;;;;;19.21;68.94;100402.80;124809;1099;104153;-79
2022/09/01 03:08:38;;;;;;;6.63;3.83;;;;;;;19.20;69.70;100418.77;124783;1099;104232;-79
2022/09/01 03:11:10;;;;;;;10.07;4.10;;;;;;;19.20;69.05;100414.32;124842;1098;104217;-79
2022/09/01 03:13:43;;;;;;;10.00;4.10;;;;;;;19.19;69.56;100414.32;124884;1099;104181;-79
2022/09/01 03:16:15;;;;;;;8.47;3.57;;;;;;;19.20;69.79;100421.42;124822;1099;104205;-78
2022/09/01 03:18:48;;;;;;;9.73;4.30;;;;;;;19.17;69.24;100416.98;124767;1099;104112;-78
2022/09/01 03:21:22;;;;;;;7.17;4.35;;;;;;;19.18;69.77;100420.52;124846;1099;104178;-78
2022/09/01 03:23:56;;;;;;;8.63;3.65;;;;;;;19.17;69.15;100424.96;124724;1099;102855;-78
2022/09/01 03:26:30;;;;;;;11.33;3.70;;;;;;;19.17;68.96;100419.64;124780;1099;104281;-78
2022/09/01 03:29:03;;;;;;;8.90;3.57;;;;;;;19.17;69.48;100424.09;124870;1099;101812;-79
2022/09/01 03:31:38;;;;;;;10.47;3.63;;;;;;;19.16;69.71;100440.92;124856;1099;104229;-78
2022/09/01 03:34:11;;;;;;;8.90;3.80;;;;;;;19.14;69.03;100429.41;124760;1099;111927;-77
2022/09/01 03:36:50;;;;;;;8.47;3.50;;;;;;;19.14;69.04;100427.63;124813;1099;104194;-78
2022/09/01 03:39:25;;;;;;;7.70;3.60;;;;;;;19.16;69.64;100424.97;124847;1099;104243;-78
2022/09/01 03:41:57;;;;;;;9.70;3.70;;;;;;;19.15;69.24;100425.84;124762;1099;104274;-77
2022/09/01 03:44:29;;;;;;;9.90;3.47;;;;;;;19.14;68.97;100421.43;124781;1099;101902;-77
2022/09/01 03:47:00;;;;;;;11.00;4.00;;;;;;;19.13;69.41;100428.50;124731;1099;103300;-77
2022/09/01 03:49:32;;;;;;;15.03;3.93;;;;;;;19.14;69.18;100426.75;124813;1099;102791;-78
2022/09/01 03:52:04;;;;;;;11.87;4.70;;;;;;;19.12;69.36;100423.19;124705;1099;104188;-78
2022/09/01 03:54:35;;;;;;;11.93;4.30;;;;;;;19.14;69.39;100424.09;124795;1099;102791;-79
2022/09/01 03:57:08;;;;;;;9.67;4.20;;;;;;;19.14;69.32;100426.75;124763;1099;104229;-78
2022/09/01 03:59:43;;;;;;;10.30;3.35;;;;;;;19.13;69.46;100425.84;124833;1099;102768;-78
2022/09/01 04:02:15;;;;;;;8.60;3.60;;;;;;;19.13;68.74;100430.28;124912;1099;102823;-78
2022/09/01 04:04:47;;;;;;;12.93;4.60;;;;;;;19.13;69.36;100432.94;124815;1099;104185;-78
2022/09/01 04:07:18;;;;;;;8.27;3.47;;;;;;;19.12;69.44;100429.41;124322;1099;104339;-78
2022/09/01 04:09:51;;;;;;;12.33;4.10;;;;;;;19.12;69.00;100437.39;124407;1099;103443;-78
2022/09/01 04:12:24;;;;;;;10.05;3.62;;;;;;;19.12;69.07;100444.45;124806;1099;104300;-77
2022/09/01 04:14:56;;;;;;;8.78;4.25;;;;;;;19.09;69.29;100444.45;124818;1099;104737;-77
2022/09/01 04:20:19;;;;;;;9.87;3.97;;;;;;;19.08;68.92;100442.70;124724;1099;104312;-78
2022/09/01 04:22:51;;;;;;;12.82;4.08;;;;;;;19.08;68.99;100442.70;124749;1099;104188;-77
2022/09/01 04:25:24;;;;;;;8.83;3.70;;;;;;;19.09;68.79;100433.81;124762;1099;111902;-77
2022/09/01 04:27:55;;;;;;;9.87;3.63;;;;;;;19.09;68.48;100432.06;124834;1099;104201;-77
2022/09/01 04:30:30;;;;;;;15.95;4.95;;;;;;;19.09;69.08;100434.73;124662;1099;102852;-77
2022/09/01 04:33:02;;;;;;;11.33;4.07;;;;;;;19.10;68.19;100439.14;124756;1099;104271;-77
2022/09/01 04:35:37;;;;;;;11.30;3.90;;;;;;;19.10;68.62;100440.92;124736;1099;104268;-78
2022/09/01 04:38:08;;;;;;;15.97;3.83;;;;;;;19.10;68.40;100435.61;124794;1099;104162;-79
2022/09/01 04:40:41;;;;;;;13.97;4.20;;;;;;;19.13;68.47;100435.61;124741;1099;104239;-79
2022/09/01 04:43:12;;;;;;;31.87;5.20;;;;;;;19.15;68.58;100434.73;124789;1099;104284;-79
2022/09/01 04:45:48;;;;;;;21.23;4.83;;;;;;;19.18;69.00;100433.81;124656;1099;102808;-76
2022/09/01 04:48:21;;;;;;;10.80;4.00;;;;;;;19.20;68.43;100435.59;124850;1099;104166;-77
2022/09/01 04:50:55;;;;;;;11.65;4.33;;;;;;;19.20;68.51;100422.30;124828;1099;104258;-76
2022/09/01 04:53:33;;;;;;;9.33;4.30;;;;;;;19.19;68.76;100432.94;124847;1099;102217;-76
2022/09/01 04:56:04;;;;;;;;;;;;;;;19.15;68.05;100420.52;124343;1099;118847;-77
2022/09/01 04:58:40;;;;;;;15.77;4.03;;;;;;;19.23;68.26;100437.38;124737;1099;102797;-76
2022/09/01 05:01:19;;;;;;;16.57;4.80;;;;;;;19.27;68.32;100432.94;124773;1099;101847;-76
2022/09/01 05:04:00;;;;;;;10.70;3.97;;;;;;;19.31;68.58;100440.91;124803;1099;104240;-78
2022/09/01 05:06:44;;;;;;;10.40;4.47;;;;;;;19.34;68.49;100427.61;124819;1099;102758;-77
2022/09/01 05:09:18;;;;;;;11.90;4.17;;;;;;;19.38;68.01;100432.05;124806;1099;104227;-78
2022/09/01 05:12:09;;;;;;;9.63;4.13;;;;;;;19.46;68.34;100425.80;124695;1099;102669;-77
2022/09/01 05:14:47;;;;;;;11.50;3.70;;;;;;;19.47;68.67;100431.13;124793;1099;103607;-79
2022/09/01 05:17:24;;;;;;;9.30;3.90;;;;;;;19.47;68.18;100425.80;124825;1099;104280;-78
2022/09/01 05:19:57;;;;;;;12.77;4.33;;;;;;;19.48;68.00;100432.91;124770;1099;104156;-78
2022/09/01 05:22:30;;;;;;;8.87;3.90;;;;;;;19.49;67.68;100431.13;124802;1099;102328;-78
2022/09/01 05:25:10;;;;;;;10.87;3.90;;;;;;;19.49;66.89;100444.42;124871;1099;102900;-79
2022/09/01 05:27:48;;;;;;;12.60;4.10;;;;;;;19.49;67.63;100433.78;124784;1098;104723;-78
2022/09/01 05:30:21;;;;;;;8.37;3.60;;;;;;;19.48;66.42;100430.25;124737;1099;104328;-79
2022/09/01 05:32:54;;;;;;;14.77;3.63;;;;;;;19.52;66.87;100439.09;124847;1098;104182;-78
2022/09/01 05:35:30;;;;;;;20.23;4.23;;;;;;;19.55;66.18;100423.13;124764;1098;104458;-78
2022/09/01 05:38:07;;;;;;;15.43;3.80;;;;;;;19.57;66.36;100416.92;124701;1099;104053;-78
2022/09/01 05:40:42;;;;;;;16.13;4.40;;;;;;;19.60;66.24;100415.13;124756;1099;104278;-78
2022/09/01 05:43:16;;;;;;;15.70;3.70;;;;;;;19.64;66.76;100420.44;124774;1098;104233;-78
2022/09/01 05:45:49;;;;;;;10.50;3.37;;;;;;;19.68;66.46;100434.62;125091;1099;102807;-78
2022/09/01 05:48:23;;;;;;;10.13;3.90;;;;;;;19.71;65.94;100435.52;124757;1099;102654;-78
2022/09/01 05:50:58;;;;;;;;;;;;;;;19.74;65.30;100424.86;124785;1099;104201;-79
2022/09/01 05:53:33;;;;;;;14.37;4.13;;;;;;;19.85;65.46;100434.60;124850;1099;102883;-77
2022/09/01 05:56:12;;;;;;;12.97;3.70;;;;;;;19.87;65.83;100431.05;124787;1100;104212;-79
2022/09/01 05:58:45;;;;;;;13.23;4.33;;;;;;;19.86;64.95;100426.61;124767;1098;102129;-78
2022/09/01 06:01:23;;;;;;;17.07;4.00;;;;;;;19.82;65.78;100429.28;124818;1099;104312;-79
2022/09/01 06:04:05;;;;;;;14.57;4.00;;;;;;;19.87;65.09;100446.16;124859;1099;104329;-78
2022/09/01 06:06:45;;;;;;;8.90;4.00;;;;;;;19.89;64.35;100449.69;124817;1098;104159;-77
2022/09/01 06:09:22;;;;;;;12.17;4.03;;;;;;;19.95;65.36;100457.66;124975;1099;104169;-79
2022/09/01 06:12:16;;;;;;;15.27;4.20;;;;;;;20.03;65.09;100449.64;124811;1099;104189;-79
2022/09/01 06:14:51;;;;;;;11.93;3.73;;;;;;;20.10;65.10;100446.95;124887;1099;102250;-79
2022/09/01 06:17:29;;;;;;;14.03;3.73;;;;;;;20.21;63.82;100448.66;124795;1099;102360;-79
2022/09/01 06:20:10;;;;;;;10.30;4.12;;;;;;;20.31;64.19;100447.73;124858;1099;102158;-79
2022/09/01 06:22:44;;;;;;;8.43;3.20;;;;;;;20.40;63.67;100442.35;125897;1099;102348;-79
2022/09/01 06:25:19;;;;;;;6.80;3.00;;;;;;;20.51;63.93;100444.95;124915;1099;104846;-78
2022/09/01 06:27:57;;;;;;;10.00;3.40;;;;;;;20.63;62.37;100449.31;125489;1099;102977;-79
2022/09/01 06:30:35;;;;;;;11.47;3.57;;;;;;;20.71;61.76;100438.62;125503;1099;104249;-79
2022/09/01 06:33:16;;;;;;;9.23;2.93;;;;;;;20.79;62.08;100444.81;124916;1099;104229;-79
2022/09/01 06:35:52;;;;;;;9.83;3.20;;;;;;;20.86;61.80;100449.19;124951;1099;104262;-78
2022/09/01 06:38:28;;;;;;;4.60;2.80;;;;;;;20.86;60.85;100443.85;125946;1099;102873;-80
2022/09/01 06:41:11;;;;;;;5.90;2.83;;;;;;;20.91;60.60;100459.82;124983;1099;102427;-78
2022/09/01 06:43:43;;;;;;;12.63;3.47;;;;;;;20.99;60.43;100447.34;124854;1099;104054;-78
2022/09/01 06:46:18;;;;;;;9.28;3.65;;;;;;;21.07;61.25;100453.48;124962;1099;104313;-79
2022/09/01 06:48:57;;;;;;;6.83;3.33;;;;;;;21.10;59.65;100456.12;124868;1099;113003;-80
2022/09/01 06:51:30;;;;;;;11.20;3.30;;;;;;;21.08;59.94;100457.02;125708;1099;104217;-78
2022/09/01 06:54:13;;;;;;;6.87;3.05;;;;;;;21.08;59.75;100463.23;124965;1099;103607;-78
2022/09/01 06:56:52;;;;;;;7.60;3.30;;;;;;;21.10;60.48;100461.46;124838;1099;104066;-80
2022/09/01 06:59:30;;;;;;;8.77;3.10;;;;;;;21.14;59.93;100467.64;124821;1099;104651;-78
2022/09/01 07:02:08;;;;;;;8.27;3.43;;;;;;;21.18;59.03;100461.40;124936;1099;104188;-80
2022/09/01 07:05:01;;;;;;;9.17;3.30;;;;;;;21.28;59.93;100459.52;124972;1099;102295;-79
2022/09/01 07:07:41;;;;;;;10.57;3.07;;;;;;;21.36;58.67;100463.00;125419;1099;104197;-79
2022/09/01 07:10:50;;;;;;;10.67;3.43;;;;;;;21.42;59.02;100462.94;124818;1099;104248;-79
2022/09/01 07:13:24;;;;;;;17.43;3.67;;;;;;;21.45;58.40;100454.91;125344;1099;104044;-79
2022/09/01 07:16:02;;;;;;;7.97;3.30;;;;;;;21.54;58.50;100456.64;125067;1099;104156;-79
2022/09/01 07:18:38;;;;;;;9.23;3.13;;;;;;;21.62;58.89;100467.25;126101;1099;104252;-77
2022/09/01 07:21:10;;;;;;;8.48;2.80;;;;;;;21.66;58.16;100456.52;124956;1099;104360;-77
2022/09/01 07:23:43;;;;;;;4.87;3.00;;;;;;;21.65;57.96;100453.86;124899;1099;104107;-78
2022/09/01 07:26:18;;;;;;;6.33;2.80;;;;;;;21.64;57.68;100462.77;124840;1099;104160;-77
2022/09/01 07:28:52;;;;;;;7.90;3.10;;;;;;;21.54;57.53;100456.64;124865;1099;102782;-77
2022/09/01 07:31:30;;;;;;;8.83;2.97;;;;;;;21.62;57.27;100475.26;124882;1099;101941;-77
2022/09/01 07:34:11;;;;;;;7.57;2.97;;;;;;;21.66;57.24;100476.97;125854;1098;104160;-78
2022/09/01 07:36:46;;;;;;;7.40;3.10;;;;;;;21.79;57.25;100470.61;125338;1099;101997;-77
2022/09/01 07:39:18;;;;;;;7.40;3.22;;;;;;;21.97;56.36;100468.63;125402;1099;102726;-77
2022/09/01 07:42:10;;;;;;;7.13;3.10;;;;;;;22.13;55.88;100470.23;126038;1099;102080;-77
2022/09/01 07:45:13;;;;;;;8.23;3.13;;;;;;;22.30;55.56;100471.78;126137;1098;104243;-78
2022/09/01 07:47:54;;;;;;;5.17;2.40;;;;;;;22.34;55.25;100466.41;125062;1099;102954;-79
2022/09/01 07:50:30;;;;;;;7.07;2.63;;;;;;;22.37;54.63;100468.17;124940;1099;107041;-77
2022/09/01 07:53:05;;;;;;;3.93;2.60;;;;;;;22.38;54.61;100459.25;124917;1099;101924;-77
2022/09/01 07:55:43;;;;;;;6.97;2.80;;;;;;;22.46;54.41;100469.84;124857;1099;104217;-77
2022/09/01 07:58:15;;;;;;;4.83;2.60;;;;;;;22.61;53.82;100472.30;124935;1099;102235;-78
2022/09/01 08:00:52;;;;;;;9.20;2.90;;;;;;;22.70;53.74;100469.47;124863;1099;117848;-78
2022/09/01 08:03:27;;;;;;;6.83;2.52;;;;;;;22.74;53.33;100473.00;124899;1099;104226;-78
2022/09/01 08:06:08;;;;;;;8.47;2.80;;;;;;;22.68;53.36;100465.94;125048;1099;102583;-78
2022/09/01 08:08:50;;;;;;;7.60;2.60;;;;;;;22.66;53.40;100464.19;125026;1097;102497;-77
2022/09/01 08:11:38;;;;;;;7.43;2.77;;;;;;;22.64;53.29;100463.33;126357;1098;102780;-77
2022/09/01 08:14:12;;;;;;;8.80;2.67;;;;;;;22.67;53.12;100469.51;125793;1099;102993;-77
2022/09/01 08:17:23;;;;;;;9.85;3.02;;;;;;;22.68;52.44;100465.94;124924;1099;102415;-77
2022/09/01 08:19:57;;;;;;;;;;;;;;;22.80;51.44;100467.56;125064;1099;104181;-78
2022/09/01 08:23:02;;;;;;;7.83;2.97;;;;;;;22.95;51.93;100469.09;124744;1099;104210;-77
2022/09/01 08:25:38;;;;;;;6.87;2.70;;;;;;;23.01;52.34;100473.48;124795;1098;104226;-77
2022/09/01 08:28:11;;;;;;;8.10;3.05;;;;;;;23.06;51.71;100461.80;124906;1099;102972;-78
2022/09/01 08:30:51;;;;;;;4.77;2.70;;;;;;;23.14;51.76;100464.38;124869;1099;104396;-78
2022/09/01 08:33:28;;;;;;;5.10;2.83;;;;;;;23.23;51.49;100461.52;124846;1099;102794;-78
2022/09/01 08:36:02;;;;;;;9.23;3.13;;;;;;;23.27;51.97;100460.56;124486;1099;104194;-78
2022/09/01 08:38:35;;;;;;;11.60;2.90;;;;;;;23.33;51.55;100454.23;124565;1099;101861;-78
2022/09/01 08:41:18;;;;;;;6.83;2.83;;;;;;;23.42;51.56;100448.72;124906;1099;104176;-78
2022/09/01 08:44:04;;;;;;;7.63;2.77;;;;;;;23.47;51.11;100452.19;124854;1099;104319;-79
2022/09/01 08:46:42;;;;;;;9.70;2.80;;;;;;;23.64;50.71;100451.00;124952;1099;104249;-79
2022/09/01 08:49:23;;;;;;;6.27;2.70;;;;;;;23.70;50.54;100450.88;124852;1099;102538;-79
2022/09/01 08:52:28;;;;;;;7.10;3.07;;;;;;;23.81;50.46;100443.51;124982;1099;104335;-79
2022/09/01 08:55:15;;;;;;;6.60;2.53;;;;;;;23.91;50.32;100441.55;125655;1099;102862;-78
2022/09/01 08:57:54;;;;;;;9.07;3.13;;;;;;;24.07;50.79;100435.88;124858;1099;104220;-79
2022/09/01 09:00:40;;;;;;;6.17;3.00;;;;;;;24.16;49.63;100439.23;124978;1099;102806;-79
2022/09/01 09:03:40;;;;;;;5.13;2.47;;;;;;;24.38;49.15;100431.59;124994;1099;104350;-79
2022/09/01 09:06:36;;;;;;;5.87;2.70;;;;;;;24.57;49.22;100429.44;125912;1097;102306;-76
2022/09/01 09:09:18;;;;;;;5.07;2.70;;;;;;;24.65;49.25;100434.63;124935;1099;104204;-76
2022/09/01 09:12:27;;;;;;;7.67;2.70;;;;;;;24.70;49.43;100427.34;124879;1099;102980;-76
2022/09/01 09:15:11;;;;;;;9.53;2.70;;;;;;;24.71;48.55;100423.75;124925;1099;102577;-78
2022/09/01 09:17:58;;;;;;;8.43;2.80;;;;;;;24.70;47.79;100432.70;124939;1099;101880;-78
2022/09/01 09:20:34;;;;;;;5.27;2.40;;;;;;;24.80;47.37;100435.17;124998;1099;104229;-78
2022/09/01 09:23:14;;;;;;;6.97;2.70;;;;;;;24.79;46.51;100425.34;124961;1099;104188;-78
2022/09/01 09:25:47;;;;;;;6.80;2.50;;;;;;;24.82;46.47;100427.95;124880;1099;104332;-79
2022/09/01 09:28:24;;;;;;;5.87;2.40;;;;;;;24.80;46.63;100424.44;124949;1099;104153;-79
2022/09/01 09:31:29;;;;;;;3.77;2.43;;;;;;;24.80;46.86;100432.48;124891;1099;102806;-80
2022/09/01 09:34:36;;;;;;;6.63;2.60;;;;;;;24.76;46.42;100426.28;126051;1098;102359;-78
2022/09/01 09:37:31;;;;;;;4.37;2.40;;;;;;;24.67;46.88;100431.91;127467;1098;103045;-79
2022/09/01 09:40:25;;;;;;;3.93;2.57;;;;;;;24.53;46.56;100429.51;127096;1098;101706;-79
2022/09/01 09:43:16;;;;;;;5.47;2.43;;;;;;;24.50;46.73;100424.22;127032;1098;101685;-79
2022/09/01 09:45:48;;;;;;;3.57;2.30;;;;;;;24.49;46.27;100431.36;127690;1097;101745;-79
2022/09/01 09:48:33;;;;;;;7.43;2.60;;;;;;;24.51;46.06;100428.64;127235;1098;102052;-79
2022/09/01 09:51:22;;;;;;;3.70;2.50;;;;;;;24.51;46.24;100423.27;126080;1098;103333;-78
2022/09/01 09:54:14;;;;;;;8.60;2.80;;;;;;;24.57;46.34;100424.08;124874;1099;107049;-77
2022/09/01 09:56:50;;;;;;;6.10;2.50;;;;;;;24.61;46.38;100422.19;124912;1098;102617;-76
2022/09/01 09:59:33;;;;;;;9.03;2.47;;;;;;;24.60;46.12;100420.41;124922;1099;104156;-78
2022/09/01 10:02:31;;;;;;;5.17;2.53;;;;;;;24.60;46.38;100416.86;124944;1099;102410;-77
2022/09/01 10:05:21;;;;;;;6.60;2.70;;;;;;;24.64;46.22;100411.39;124834;1099;102164;-77
2022/09/01 10:07:58;;;;;;;3.83;2.40;;;;;;;24.72;46.38;100416.57;125641;1099;102839;-77
2022/09/01 10:10:48;;;;;;;8.17;2.70;;;;;;;24.80;46.00;100405.66;125723;1099;104214;-79
2022/09/01 10:13:25;;;;;;;8.07;2.80;;;;;;;24.94;46.22;100406.18;125020;1099;104194;-79
2022/09/01 10:16:07;;;;;;;5.67;2.80;;;;;;;25.05;46.06;100406.78;124927;1099;104246;-78
2022/09/01 10:18:45;;;;;;;4.67;2.57;;;;;;;25.05;45.56;100409.47;124768;1099;104267;-77
2022/09/01 10:21:36;;;;;;;6.63;2.73;;;;;;;25.16;45.25;100411.00;124827;1099;102448;-78
2022/09/01 10:24:29;;;;;;;6.00;2.50;;;;;;;25.15;44.85;100412.81;124987;1098;104258;-78
2022/09/01 10:27:11;;;;;;;3.17;2.57;;;;;;;25.11;44.90;100395.89;124870;1099;102288;-78
2022/09/01 10:29:51;;;;;;;5.87;2.90;;;;;;;25.15;44.92;100388.66;124890;1099;102400;-78
2022/09/01 10:32:32;;;;;;;13.60;3.30;;;;;;;25.26;45.33;100391.92;124941;1099;102057;-78
2022/09/01 10:35:05;;;;;;;4.23;3.00;;;;;;;25.27;44.49;100388.33;124921;1099;104223;-78
2022/09/01 10:37:40;;;;;;;8.07;3.20;;;;;;;25.17;44.85;100391.30;124874;1099;104239;-76
2022/09/01 10:40:39;;;;;;;6.20;3.07;;;;;;;25.15;44.39;100385.06;124914;1099;104182;-77
2022/09/01 10:43:35;;;;;;;5.40;2.90;;;;;;;25.29;44.62;100378.45;124946;1099;105124;-78
2022/09/01 10:46:44;;;;;;;6.13;2.90;;;;;;;25.41;44.49;100387.95;125865;1098;102948;-77
2022/09/01 10:49:43;;;;;;;9.40;3.10;;;;;;;25.52;44.43;100384.11;124709;1099;104166;-78
2022/09/01 10:52:52;;;;;;;7.73;3.03;;;;;;;25.61;44.13;100389.22;126159;1097;104114;-79
2022/09/01 10:55:29;;;;;;;19.07;3.80;;;;;;;25.66;44.32;100398.02;124930;1099;111937;-78
2022/09/01 10:58:14;;;;;;;6.60;2.83;;;;;;;25.65;44.46;100382.84;124847;1099;104275;-78
2022/09/01 11:01:03;;;;;;;14.75;3.05;;;;;;;25.54;44.55;100383.15;124830;1099;103150;-78
2022/09/01 11:03:55;;;;;;;6.27;2.83;;;;;;;25.59;43.60;100383.89;124950;1099;104251;-79
2022/09/01 11:07:03;;;;;;;7.43;3.07;;;;;;;25.65;43.21;100389.09;124849;1099;104160;-79
2022/09/01 11:09:47;;;;;;;6.03;3.00;;;;;;;25.61;42.46;100386.53;126200;1098;102461;-79
2022/09/01 11:12:49;;;;;;;6.13;2.87;;;;;;;25.63;43.10;100380.20;125622;1099;104347;-79
2022/09/01 11:15:42;;;;;;;23.60;3.93;;;;;;;25.75;43.69;100376.27;125625;1098;104178;-78
2022/09/01 11:18:25;;;;;;;5.90;2.87;;;;;;;25.80;43.05;100379.72;124810;1099;104050;-78
2022/09/01 11:21:18;;;;;;;4.33;2.73;;;;;;;25.83;42.31;100374.22;125637;1099;104194;-78
2022/09/01 11:24:12;;;;;;;6.33;2.90;;;;;;;25.81;41.40;100378.77;124866;1099;104230;-79
2022/09/01 11:27:05;;;;;;;4.80;2.73;;;;;;;25.75;41.85;100370.89;124869;1098;105027;-79
2022/09/01 11:30:04;;;;;;;5.03;2.90;;;;;;;25.66;41.68;100371.16;125723;1099;103665;-78
2022/09/01 11:32:42;;;;;;;4.37;2.70;;;;;;;25.62;41.35;100361.44;124948;1099;103412;-77
2022/09/01 11:35:31;;;;;;;4.10;2.70;;;;;;;25.65;41.06;100354.16;124890;1098;104207;-77
2022/09/01 11:38:07;;;;;;;4.80;2.70;;;;;;;25.77;41.25;100354.72;124963;1099;102065;-78
2022/09/01 11:40:43;;;;;;;6.00;3.30;;;;;;;25.83;41.54;100346.47;124736;1099;104248;-79
2022/09/01 11:43:22;;;;;;;10.60;3.80;;;;;;;25.86;41.21;100348.20;124935;1099;104159;-78
2022/09/01 11:46:14;;;;;;;8.70;3.50;;;;;;;25.91;40.59;100346.25;124823;1099;104396;-79
2022/09/01 11:48:50;;;;;;;5.87;3.23;;;;;;;25.79;40.97;100344.83;124832;1099;103210;-77
2022/09/01 11:51:23;;;;;;;8.07;3.33;;;;;;;25.61;40.49;100349.79;124826;1099;104253;-78
2022/09/01 11:54:04;;;;;;;5.95;2.62;;;;;;;25.47;40.11;100342.13;124831;1099;104261;-80
2022/09/01 11:56:37;;;;;;;4.67;2.93;;;;;;;25.37;40.89;100353.17;124770;1099;120888;-80
2022/09/01 11:59:12;;;;;;;7.73;2.90;;;;;;;25.21;40.42;100345.53;125298;1098;104163;-79
2022/09/01 12:01:45;;;;;;;6.27;3.20;;;;;;;25.07;40.66;100343.22;124923;1099;101955;-79
2022/09/01 12:04:30;;;;;;;9.18;3.20;;;;;;;24.93;40.74;100354.31;124828;1099;104229;-78